METAR Data
IDs: Format: Raw Decoded Include TAF

Data at: 1726 UTC 16 Oct 2021

KACT 161651Z 03015G22KT 10SM CLR 22/01 A3039 RMK AO2 SLP285 T02170006
KACT 161551Z 03005KT 10SM CLR 19/07 A3039 RMK AO2 SLP287 T01940067
KACT 161451Z 34004KT 10SM CLR 16/08 A3038 RMK AO2 SLP285 T01610083 51022
KACT 161351Z 00000KT 10SM CLR 13/08 A3037 RMK AO2 SLP279 T01330083
KACT 161251Z 26003KT 10SM CLR 08/07 A3034 RMK AO2 SLP273 T00830067
KACT 161151Z 32005KT 10SM CLR 11/07 A3032 RMK AO2 SLP263 T01060067 10139 20094 53009
KACT 161051Z 30004KT 10SM CLR 11/07 A3031 RMK AO2 SLP259 T01060072
KACT 160951Z AUTO 33006KT 10SM CLR 12/07 A3029 RMK AO2 SLP251 T01170072
KACT 160851Z AUTO 32005KT 10SM CLR 11/07 A3029 RMK AO2 SLP252 T01060072 53008
KACT 160751Z AUTO 33004KT 10SM CLR 12/07 A3028 RMK AO2 SLP248 T01220072
KACT 160651Z AUTO 34007KT 10SM CLR 13/07 A3027 RMK AO2 SLP246 T01330072
KACT 160551Z AUTO 34007KT 10SM CLR 14/08 A3026 RMK AO2 SLP244 T01390083 10217 20139 402560139 51024
KACT 160451Z AUTO 34006KT 10SM CLR 14/09 A3025 RMK AO2 SLP239 T01440089
KACT 160351Z 34009KT 10SM CLR 16/09 A3023 RMK AO2 SLP229 T01610089
KACT 160251Z 35008KT 10SM CLR 17/09 A3019 RMK AO2 SLP218 T01720094 51034
KACT 160151Z AUTO 35011KT 10SM CLR 19/09 A3016 RMK AO2 SLP208 T01890094
KACT 160051Z 34011KT 10SM CLR 20/11 A3013 RMK AO2 SLP197 T02000111
KACT 152351Z 35012G19KT 10SM CLR 22/12 A3009 RMK AO2 SLP184 T02170117 10256 20217 53016
KACT 152251Z 35013G24KT 10SM CLR 24/13 A3007 RMK AO2 PK WND 34028/2219 SLP176 T02390128
KACT 152151Z 36019G26KT 10SM FEW039 26/14 A3005 RMK AO2 PK WND 34026/2149 SLP167 T02560144
KACT 152051Z 33014G25KT 10SM FEW032 25/16 A3004 RMK AO2 PK WND 32026/2040 SLP167 T02500156 53004
KACT 151951Z 33015G22KT 10SM FEW027 25/17 A3003 RMK AO2 PK WND 34026/1853 SLP162 T02500167
KACT 151851Z 34017G23KT 10SM SCT024 24/16 A3004 RMK AO2 PK WND 34027/1838 SLP164 T02390161
KACT 151758Z 33020G26KT 10SM FEW040 24/17 A3003 RMK AO2 PK WND 32026/1758 T02390172
KACT 151751Z 33017G26KT 10SM BKN026 OVC034 24/17 A3003 RMK AO2 PK WND 32026/1750 SLP164 T02440167 10256 20211 53025
KACT 151651Z 31014KT 10SM BKN018 OVC023 24/19 A3001 RMK AO2 SLP155 T02390194
KACT 151551Z 27008KT 10SM OVC021 26/22 A2998 RMK AO2 SLP144 T02560222
KACT 151504Z 25009KT 10SM BKN018 BKN065 25/22 A2996 RMK AO2 T02500222
KACT 151451Z 22005KT 10SM FEW020 BKN065 24/23 A2996 RMK AO2 SLP137 T02440228 53020
KACT 151351Z 20005KT 7SM CLR 23/22 A2993 RMK AO2 SLP128 T02280217 $
KACT 151343Z 20006KT 7SM FEW006 23/22 A2993 RMK AO2 T02280217 $
KACT 151251Z 20006KT 5SM BR OVC005 22/21 A2991 RMK AO2 SLP123 T02170206 $
KACT 151212Z 21009KT 10SM BKN006 22/21 A2991 RMK AO2 T02170206 $
KACT 151204Z 22008KT 10SM SCT006 21/20 A2990 RMK AO2 T02110200 $
KACT 151151Z 20007KT 10SM CLR 21/20 A2990 RMK AO2 SLP117 T02110200 10222 20206 53014 $
KACT 151137Z 20006KT 10SM SCT021 21/21 A2989 RMK AO2 T02110206 $
KACT 151106Z 26006KT 9SM BKN025 22/21 A2990 RMK AO2 T02170206 $
KACT 151051Z 25005KT 9SM CLR 21/20 A2989 RMK AO2 SLP113 T02060200 $
KACT 150951Z AUTO 21005KT 10SM CLR 21/21 A2986 RMK AO2 SLP104 T02110206
KACT 150851Z AUTO 19005KT 9SM CLR 21/21 A2986 RMK AO2 SLP103 T02110206 58002
KACT 150751Z AUTO 20004KT 7SM CLR 21/19 A2986 RMK AO2 SLP105 T02060194
KACT 150651Z AUTO 18007KT 10SM CLR 22/21 A2987 RMK AO2 SLP106 T02220211
KACT 150551Z AUTO 15004KT 10SM CLR 21/20 A2986 RMK AO2 SLP105 T02110200 10256 20211 402940200 50003